sensor_id;sensor_type;location;lat;lon;timestamp;temperature;humidity
37232;DHT22;23125;48.156;15.954;2023-03-26T00:01:21;10.70;54.80
37232;DHT22;23125;48.156;15.954;2023-03-26T00:03:49;10.70;54.90
37232;DHT22;23125;48.156;15.954;2023-03-26T00:06:21;10.70;55.00
37232;DHT22;23125;48.156;15.954;2023-03-26T00:08:48;10.70;55.10
37232;DHT22;23125;48.156;15.954;2023-03-26T00:11:16;10.70;55.10
37232;DHT22;23125;48.156;15.954;2023-03-26T00:13:44;10.70;55.10
37232;DHT22;23125;48.156;15.954;2023-03-26T00:16:13;10.80;55.20
37232;DHT22;23125;48.156;15.954;2023-03-26T00:18:40;10.80;55.20
37232;DHT22;23125;48.156;15.954;2023-03-26T00:21:14;10.80;55.30
37232;DHT22;23125;48.156;15.954;2023-03-26T00:23:42;10.90;55.40
37232;DHT22;23125;48.156;15.954;2023-03-26T00:26:09;10.90;55.30
37232;DHT22;23125;48.156;15.954;2023-03-26T00:28:37;10.90;55.30
37232;DHT22;23125;48.156;15.954;2023-03-26T00:31:07;10.90;55.30
37232;DHT22;23125;48.156;15.954;2023-03-26T00:33:33;10.90;55.30
37232;DHT22;23125;48.156;15.954;2023-03-26T00:36:05;10.90;55.30
37232;DHT22;23125;48.156;15.954;2023-03-26T00:38:31;11.00;55.30
37232;DHT22;23125;48.156;15.954;2023-03-26T00:41:05;11.00;55.30
37232;DHT22;23125;48.156;15.954;2023-03-26T00:43:35;11.00;55.30
37232;DHT22;23125;48.156;15.954;2023-03-26T00:46:01;11.00;55.30
37232;DHT22;23125;48.156;15.954;2023-03-26T00:48:27;11.00;55.30
37232;DHT22;23125;48.156;15.954;2023-03-26T00:50:55;11.00;55.30
37232;DHT22;23125;48.156;15.954;2023-03-26T00:53:21;11.00;55.30
37232;DHT22;23125;48.156;15.954;2023-03-26T00:55:47;11.00;55.40
37232;DHT22;23125;48.156;15.954;2023-03-26T00:58:14;11.00;55.40
37232;DHT22;23125;48.156;15.954;2023-03-26T01:00:54;11.00;55.40
37232;DHT22;23125;48.156;15.954;2023-03-26T01:03:24;11.00;55.40
37232;DHT22;23125;48.156;15.954;2023-03-26T01:05:59;11.10;55.50
37232;DHT22;23125;48.156;15.954;2023-03-26T01:11:08;11.10;55.50
37232;DHT22;23125;48.156;15.954;2023-03-26T01:13:42;11.10;55.50
37232;DHT22;23125;48.156;15.954;2023-03-26T01:18:47;11.20;55.40
37232;DHT22;23125;48.156;15.954;2023-03-26T01:21:17;11.10;55.90
37232;DHT22;23125;48.156;15.954;2023-03-26T01:29:05;11.10;55.30
37232;DHT22;23125;48.156;15.954;2023-03-26T01:31:54;11.10;55.50
37232;DHT22;23125;48.156;15.954;2023-03-26T01:37:24;11.20;55.80
37232;DHT22;23125;48.156;15.954;2023-03-26T01:40:04;11.20;55.90
37232;DHT22;23125;48.156;15.954;2023-03-26T01:42:43;11.30;56.10
37232;DHT22;23125;48.156;15.954;2023-03-26T01:45:18;11.30;56.10
37232;DHT22;23125;48.156;15.954;2023-03-26T01:47:46;11.30;56.10
37232;DHT22;23125;48.156;15.954;2023-03-26T01:50:12;11.40;56.10
37232;DHT22;23125;48.156;15.954;2023-03-26T01:52:38;11.40;56.10
37232;DHT22;23125;48.156;15.954;2023-03-26T01:55:06;11.50;56.10
37232;DHT22;23125;48.156;15.954;2023-03-26T02:00:19;11.60;56.00
37232;DHT22;23125;48.156;15.954;2023-03-26T02:03:04;11.60;56.00
37232;DHT22;23125;48.156;15.954;2023-03-26T02:08:25;11.60;56.00
37232;DHT22;23125;48.156;15.954;2023-03-26T02:11:06;11.60;56.00
37232;DHT22;23125;48.156;15.954;2023-03-26T02:13:38;11.70;56.00
37232;DHT22;23125;48.156;15.954;2023-03-26T02:16:06;11.70;55.90
37232;DHT22;23125;48.156;15.954;2023-03-26T02:18:33;11.70;55.90
37232;DHT22;23125;48.156;15.954;2023-03-26T02:21:13;11.70;55.80
37232;DHT22;23125;48.156;15.954;2023-03-26T02:23:42;11.70;55.80
37232;DHT22;23125;48.156;15.954;2023-03-26T02:26:13;11.70;55.70
37232;DHT22;23125;48.156;15.954;2023-03-26T02:28:40;11.70;55.70
37232;DHT22;23125;48.156;15.954;2023-03-26T02:31:06;11.70;55.60
37232;DHT22;23125;48.156;15.954;2023-03-26T02:33:36;11.60;55.60
37232;DHT22;23125;48.156;15.954;2023-03-26T02:36:03;11.60;55.60
37232;DHT22;23125;48.156;15.954;2023-03-26T02:38:31;11.60;55.60
37232;DHT22;23125;48.156;15.954;2023-03-26T02:41:03;11.60;55.60
37232;DHT22;23125;48.156;15.954;2023-03-26T02:43:29;11.60;55.60
37232;DHT22;23125;48.156;15.954;2023-03-26T02:45:55;11.60;55.70
37232;DHT22;23125;48.156;15.954;2023-03-26T02:48:21;11.60;55.70
37232;DHT22;23125;48.156;15.954;2023-03-26T02:50:48;11.60;55.80
37232;DHT22;23125;48.156;15.954;2023-03-26T02:53:21;11.60;55.70
37232;DHT22;23125;48.156;15.954;2023-03-26T02:55:48;11.60;55.80
37232;DHT22;23125;48.156;15.954;2023-03-26T02:58:14;11.60;55.80
37232;DHT22;23125;48.156;15.954;2023-03-26T03:00:45;11.60;55.70
37232;DHT22;23125;48.156;15.954;2023-03-26T03:03:12;11.60;55.70
37232;DHT22;23125;48.156;15.954;2023-03-26T03:05:38;11.50;55.60
37232;DHT22;23125;48.156;15.954;2023-03-26T03:08:08;11.50;55.60
37232;DHT22;23125;48.156;15.954;2023-03-26T03:10:34;11.50;55.60
37232;DHT22;23125;48.156;15.954;2023-03-26T03:13:02;11.50;55.60
37232;DHT22;23125;48.156;15.954;2023-03-26T03:15:32;11.40;55.60
37232;DHT22;23125;48.156;15.954;2023-03-26T03:18:01;11.40;55.60
37232;DHT22;23125;48.156;15.954;2023-03-26T03:20:27;11.40;55.60
37232;DHT22;23125;48.156;15.954;2023-03-26T03:22:54;11.40;55.60
37232;DHT22;23125;48.156;15.954;2023-03-26T03:25:21;11.30;55.70
37232;DHT22;23125;48.156;15.954;2023-03-26T03:27:47;11.30;55.70
37232;DHT22;23125;48.156;15.954;2023-03-26T03:30:14;11.30;55.70
37232;DHT22;23125;48.156;15.954;2023-03-26T03:32:40;11.30;55.70
37232;DHT22;23125;48.156;15.954;2023-03-26T03:35:06;11.30;55.60
37232;DHT22;23125;48.156;15.954;2023-03-26T03:37:33;11.30;55.60
37232;DHT22;23125;48.156;15.954;2023-03-26T03:39:58;11.20;55.50
37232;DHT22;23125;48.156;15.954;2023-03-26T03:42:24;11.20;55.40
37232;DHT22;23125;48.156;15.954;2023-03-26T03:44:52;11.20;55.40
37232;DHT22;23125;48.156;15.954;2023-03-26T03:47:17;11.20;55.50
37232;DHT22;23125;48.156;15.954;2023-03-26T03:49:45;11.10;55.40
37232;DHT22;23125;48.156;15.954;2023-03-26T03:52:10;11.10;55.90
37232;DHT22;23125;48.156;15.954;2023-03-26T03:54:36;11.00;55.20
37232;DHT22;23125;48.156;15.954;2023-03-26T03:57:02;11.00;55.30
37232;DHT22;23125;48.156;15.954;2023-03-26T03:59:29;10.90;55.30
37232;DHT22;23125;48.156;15.954;2023-03-26T04:01:55;10.90;55.30
37232;DHT22;23125;48.156;15.954;2023-03-26T04:04:21;10.80;55.40
37232;DHT22;23125;48.156;15.954;2023-03-26T04:06:50;10.80;55.40
37232;DHT22;23125;48.156;15.954;2023-03-26T04:09:17;10.70;55.30
37232;DHT22;23125;48.156;15.954;2023-03-26T04:11:43;10.70;55.40
37232;DHT22;23125;48.156;15.954;2023-03-26T04:14:09;10.70;55.50
37232;DHT22;23125;48.156;15.954;2023-03-26T04:16:35;10.60;55.60
37232;DHT22;23125;48.156;15.954;2023-03-26T04:19:01;10.60;55.70
37232;DHT22;23125;48.156;15.954;2023-03-26T04:21:28;10.60;55.70
37232;DHT22;23125;48.156;15.954;2023-03-26T04:23:58;10.50;55.70
37232;DHT22;23125;48.156;15.954;2023-03-26T04:26:26;10.60;55.90
37232;DHT22;23125;48.156;15.954;2023-03-26T04:29:01;10.50;56.00
37232;DHT22;23125;48.156;15.954;2023-03-26T04:31:28;10.50;56.00
37232;DHT22;23125;48.156;15.954;2023-03-26T04:34:04;10.50;56.00
37232;DHT22;23125;48.156;15.954;2023-03-26T04:36:31;10.50;56.10
37232;DHT22;23125;48.156;15.954;2023-03-26T04:39:02;10.50;56.10
37232;DHT22;23125;48.156;15.954;2023-03-26T04:41:30;10.50;56.10
37232;DHT22;23125;48.156;15.954;2023-03-26T04:43:57;10.50;56.10
37232;DHT22;23125;48.156;15.954;2023-03-26T04:46:27;10.50;56.00
37232;DHT22;23125;48.156;15.954;2023-03-26T04:48:53;10.40;55.90
37232;DHT22;23125;48.156;15.954;2023-03-26T04:51:24;10.40;55.90
37232;DHT22;23125;48.156;15.954;2023-03-26T04:53:55;10.40;56.00
37232;DHT22;23125;48.156;15.954;2023-03-26T04:56:28;10.40;56.00
37232;DHT22;23125;48.156;15.954;2023-03-26T04:58:59;10.30;55.80
37232;DHT22;23125;48.156;15.954;2023-03-26T05:01:25;10.30;56.00
37232;DHT22;23125;48.156;15.954;2023-03-26T05:03:53;10.30;56.20
37232;DHT22;23125;48.156;15.954;2023-03-26T05:06:20;10.30;56.60
37232;DHT22;23125;48.156;15.954;2023-03-26T05:08:46;10.40;56.80
37232;DHT22;23125;48.156;15.954;2023-03-26T05:11:12;10.40;56.90
37232;DHT22;23125;48.156;15.954;2023-03-26T05:13:38;10.50;57.10
37232;DHT22;23125;48.156;15.954;2023-03-26T05:16:08;10.50;57.10
37232;DHT22;23125;48.156;15.954;2023-03-26T05:18:34;10.60;57.00
37232;DHT22;23125;48.156;15.954;2023-03-26T05:21:00;10.60;56.90
37232;DHT22;23125;48.156;15.954;2023-03-26T05:23:26;10.70;57.00
37232;DHT22;23125;48.156;15.954;2023-03-26T05:25:52;10.70;57.00
37232;DHT22;23125;48.156;15.954;2023-03-26T05:28:18;10.80;57.00
37232;DHT22;23125;48.156;15.954;2023-03-26T05:30:45;10.80;57.00
37232;DHT22;23125;48.156;15.954;2023-03-26T05:33:11;10.80;57.00
37232;DHT22;23125;48.156;15.954;2023-03-26T05:35:37;10.90;57.10
37232;DHT22;23125;48.156;15.954;2023-03-26T05:38:03;10.90;57.00
37232;DHT22;23125;48.156;15.954;2023-03-26T05:40:29;11.00;57.20
37232;DHT22;23125;48.156;15.954;2023-03-26T05:42:54;11.00;57.20
37232;DHT22;23125;48.156;15.954;2023-03-26T05:45:20;11.10;57.20
37232;DHT22;23125;48.156;15.954;2023-03-26T05:47:47;11.10;57.30
37232;DHT22;23125;48.156;15.954;2023-03-26T05:50:14;11.20;57.40
37232;DHT22;23125;48.156;15.954;2023-03-26T05:52:40;11.20;57.50
37232;DHT22;23125;48.156;15.954;2023-03-26T05:55:07;11.30;57.60
37232;DHT22;23125;48.156;15.954;2023-03-26T05:57:33;11.40;58.10
37232;DHT22;23125;48.156;15.954;2023-03-26T06:00:01;11.60;58.50
37232;DHT22;23125;48.156;15.954;2023-03-26T06:02:29;11.70;58.20
37232;DHT22;23125;48.156;15.954;2023-03-26T06:04:55;11.80;58.00
37232;DHT22;23125;48.156;15.954;2023-03-26T06:07:21;12.00;58.30
37232;DHT22;23125;48.156;15.954;2023-03-26T06:09:47;12.20;58.90
37232;DHT22;23125;48.156;15.954;2023-03-26T06:12:14;12.40;58.40
37232;DHT22;23125;48.156;15.954;2023-03-26T06:14:40;12.50;58.00
37232;DHT22;23125;48.156;15.954;2023-03-26T06:17:10;12.50;57.60
37232;DHT22;23125;48.156;15.954;2023-03-26T06:19:36;12.60;57.20
37232;DHT22;23125;48.156;15.954;2023-03-26T06:22:03;12.60;57.10
37232;DHT22;23125;48.156;15.954;2023-03-26T06:24:30;12.70;57.00
37232;DHT22;23125;48.156;15.954;2023-03-26T06:26:56;12.70;57.00
37232;DHT22;23125;48.156;15.954;2023-03-26T06:29:22;12.80;57.10
37232;DHT22;23125;48.156;15.954;2023-03-26T06:31:48;12.90;57.30
37232;DHT22;23125;48.156;15.954;2023-03-26T06:34:14;13.10;58.10
37232;DHT22;23125;48.156;15.954;2023-03-26T06:36:40;13.30;58.10
37232;DHT22;23125;48.156;15.954;2023-03-26T06:39:06;13.40;57.70
37232;DHT22;23125;48.156;15.954;2023-03-26T06:41:33;13.50;57.50
37232;DHT22;23125;48.156;15.954;2023-03-26T06:44:00;13.70;57.70
37232;DHT22;23125;48.156;15.954;2023-03-26T06:46:26;14.00;59.50
37232;DHT22;23125;48.156;15.954;2023-03-26T06:48:52;14.20;58.40
37232;DHT22;23125;48.156;15.954;2023-03-26T06:51:18;14.70;60.50
37232;DHT22;23125;48.156;15.954;2023-03-26T06:53:45;15.20;60.30
37232;DHT22;23125;48.156;15.954;2023-03-26T06:56:10;15.90;61.00
37232;DHT22;23125;48.156;15.954;2023-03-26T06:58:36;16.50;60.70
37232;DHT22;23125;48.156;15.954;2023-03-26T07:01:02;17.20;60.10
37232;DHT22;23125;48.156;15.954;2023-03-26T07:03:28;17.70;59.00
37232;DHT22;23125;48.156;15.954;2023-03-26T07:05:54;18.40;58.40
37232;DHT22;23125;48.156;15.954;2023-03-26T07:08:20;18.80;57.20
37232;DHT22;23125;48.156;15.954;2023-03-26T07:10:46;19.30;56.50
37232;DHT22;23125;48.156;15.954;2023-03-26T07:13:12;19.80;55.80
37232;DHT22;23125;48.156;15.954;2023-03-26T07:15:37;20.20;54.60
37232;DHT22;23125;48.156;15.954;2023-03-26T07:18:03;20.60;53.80
37232;DHT22;23125;48.156;15.954;2023-03-26T07:20:29;21.00;53.20
37232;DHT22;23125;48.156;15.954;2023-03-26T07:22:56;21.40;52.60
37232;DHT22;23125;48.156;15.954;2023-03-26T07:25:22;21.80;51.20
37232;DHT22;23125;48.156;15.954;2023-03-26T07:36:33;22.60;48.60
37232;DHT22;23125;48.156;15.954;2023-03-26T07:46:54;22.10;44.30
37232;DHT22;23125;48.156;15.954;2023-03-26T07:49:20;22.10;45.50
37232;DHT22;23125;48.156;15.954;2023-03-26T07:51:47;22.10;45.00
37232;DHT22;23125;48.156;15.954;2023-03-26T07:54:14;22.20;45.30
37232;DHT22;23125;48.156;15.954;2023-03-26T07:56:49;22.40;44.80
37232;DHT22;23125;48.156;15.954;2023-03-26T07:59:30;22.20;43.20
37232;DHT22;23125;48.156;15.954;2023-03-26T08:13:23;22.60;42.70
37232;DHT22;23125;48.156;15.954;2023-03-26T08:18:43;23.00;42.50
37232;DHT22;23125;48.156;15.954;2023-03-26T08:21:18;23.10;41.90
37232;DHT22;23125;48.156;15.954;2023-03-26T08:23:59;23.10;40.70
37232;DHT22;23125;48.156;15.954;2023-03-26T08:29:58;22.80;40.00
37232;DHT22;23125;48.156;15.954;2023-03-26T08:32:27;22.80;40.60
37232;DHT22;23125;48.156;15.954;2023-03-26T08:34:53;22.90;40.50
37232;DHT22;23125;48.156;15.954;2023-03-26T08:37:22;23.10;40.50
37232;DHT22;23125;48.156;15.954;2023-03-26T08:39:48;23.30;40.20
37232;DHT22;23125;48.156;15.954;2023-03-26T08:42:34;23.60;40.30
37232;DHT22;23125;48.156;15.954;2023-03-26T08:51:08;24.20;39.00
37232;DHT22;23125;48.156;15.954;2023-03-26T08:59:58;24.50;36.80
37232;DHT22;23125;48.156;15.954;2023-03-26T09:02:56;24.50;36.40
37232;DHT22;23125;48.156;15.954;2023-03-26T09:08:30;24.50;35.30
37232;DHT22;23125;48.156;15.954;2023-03-26T09:11:14;24.30;35.10
37232;DHT22;23125;48.156;15.954;2023-03-26T09:14:16;24.00;34.60
37232;DHT22;23125;48.156;15.954;2023-03-26T09:17:10;23.90;34.90
37232;DHT22;23125;48.156;15.954;2023-03-26T09:20:06;23.80;35.00
37232;DHT22;23125;48.156;15.954;2023-03-26T09:33:55;24.20;35.50
37232;DHT22;23125;48.156;15.954;2023-03-26T09:36:38;24.40;35.10
37232;DHT22;23125;48.156;15.954;2023-03-26T09:39:14;24.60;34.70
37232;DHT22;23125;48.156;15.954;2023-03-26T09:47:33;25.00;33.80
37232;DHT22;23125;48.156;15.954;2023-03-26T09:53:23;25.00;32.80
37232;DHT22;23125;48.156;15.954;2023-03-26T10:01:56;24.40;32.20
37232;DHT22;23125;48.156;15.954;2023-03-26T10:04:55;24.40;32.30
37232;DHT22;23125;48.156;15.954;2023-03-26T10:13:07;23.90;32.10
37232;DHT22;23125;48.156;15.954;2023-03-26T10:16:37;23.90;32.00
37232;DHT22;23125;48.156;15.954;2023-03-26T10:24:50;23.80;32.80
37232;DHT22;23125;48.156;15.954;2023-03-26T10:43:43;23.90;31.60
37232;DHT22;23125;48.156;15.954;2023-03-26T10:46:46;24.00;31.30
37232;DHT22;23125;48.156;15.954;2023-03-26T10:52:25;23.90;30.40
37232;DHT22;23125;48.156;15.954;2023-03-26T10:57:42;23.60;29.90
37232;DHT22;23125;48.156;15.954;2023-03-26T11:00:19;23.50;30.30
37232;DHT22;23125;48.156;15.954;2023-03-26T11:08:13;23.40;29.90
37232;DHT22;23125;48.156;15.954;2023-03-26T11:17:40;23.20;29.70
37232;DHT22;23125;48.156;15.954;2023-03-26T11:20:36;23.00;29.10
37232;DHT22;23125;48.156;15.954;2023-03-26T11:34:17;22.20;29.90
37232;DHT22;23125;48.156;15.954;2023-03-26T11:36:52;22.10;30.00
37232;DHT22;23125;48.156;15.954;2023-03-26T11:39:40;22.10;29.90
37232;DHT22;23125;48.156;15.954;2023-03-26T11:42:09;22.10;29.80
37232;DHT22;23125;48.156;15.954;2023-03-26T11:44:41;22.00;29.90
37232;DHT22;23125;48.156;15.954;2023-03-26T11:47:10;22.00;29.80
37232;DHT22;23125;48.156;15.954;2023-03-26T11:49:37;21.80;29.70
37232;DHT22;23125;48.156;15.954;2023-03-26T11:52:04;21.80;29.70
37232;DHT22;23125;48.156;15.954;2023-03-26T11:54:32;21.70;29.90
37232;DHT22;23125;48.156;15.954;2023-03-26T11:57:08;21.70;30.00
37232;DHT22;23125;48.156;15.954;2023-03-26T11:59:39;21.70;30.00
37232;DHT22;23125;48.156;15.954;2023-03-26T12:02:16;21.70;30.00
37232;DHT22;23125;48.156;15.954;2023-03-26T12:04:44;21.60;29.70
37232;DHT22;23125;48.156;15.954;2023-03-26T12:09:52;21.60;29.90
37232;DHT22;23125;48.156;15.954;2023-03-26T12:12:19;21.60;30.00
37232;DHT22;23125;48.156;15.954;2023-03-26T12:14:46;21.60;29.80
37232;DHT22;23125;48.156;15.954;2023-03-26T12:17:23;21.60;29.60
37232;DHT22;23125;48.156;15.954;2023-03-26T12:19:50;21.50;29.70
37232;DHT22;23125;48.156;15.954;2023-03-26T12:22:32;21.50;29.80
37232;DHT22;23125;48.156;15.954;2023-03-26T12:27:48;21.50;29.60
37232;DHT22;23125;48.156;15.954;2023-03-26T12:30:24;21.40;29.60
37232;DHT22;23125;48.156;15.954;2023-03-26T12:32:54;21.40;29.70
37232;DHT22;23125;48.156;15.954;2023-03-26T12:35:25;21.30;30.00
37232;DHT22;23125;48.156;15.954;2023-03-26T12:37:53;21.30;29.60
37232;DHT22;23125;48.156;15.954;2023-03-26T12:42:57;21.10;29.30
37232;DHT22;23125;48.156;15.954;2023-03-26T12:45:29;21.00;29.30
37232;DHT22;23125;48.156;15.954;2023-03-26T12:47:56;20.90;29.20
37232;DHT22;23125;48.156;15.954;2023-03-26T12:57:10;20.70;29.20
37232;DHT22;23125;48.156;15.954;2023-03-26T13:01:54;20.90;29.50
37232;DHT22;23125;48.156;15.954;2023-03-26T13:04:43;21.00;29.30
37232;DHT22;23125;48.156;15.954;2023-03-26T13:22:39;21.00;28.80
37232;DHT22;23125;48.156;15.954;2023-03-26T13:25:29;21.00;28.80
37232;DHT22;23125;48.156;15.954;2023-03-26T13:28:07;21.00;28.70
37232;DHT22;23125;48.156;15.954;2023-03-26T13:30:43;21.00;28.90
37232;DHT22;23125;48.156;15.954;2023-03-26T13:36:19;21.00;28.80
37232;DHT22;23125;48.156;15.954;2023-03-26T13:47:27;20.80;28.60
37232;DHT22;23125;48.156;15.954;2023-03-26T13:50:02;20.60;28.50
37232;DHT22;23125;48.156;15.954;2023-03-26T13:52:46;20.60;28.60
37232;DHT22;23125;48.156;15.954;2023-03-26T13:55:28;20.50;28.70
37232;DHT22;23125;48.156;15.954;2023-03-26T13:58:05;20.50;28.90
37232;DHT22;23125;48.156;15.954;2023-03-26T14:03:59;20.50;28.70
37232;DHT22;23125;48.156;15.954;2023-03-26T14:06:57;20.40;28.60
37232;DHT22;23125;48.156;15.954;2023-03-26T14:14:54;20.40;28.90
37232;DHT22;23125;48.156;15.954;2023-03-26T14:17:32;20.40;29.00
37232;DHT22;23125;48.156;15.954;2023-03-26T14:22:39;20.40;29.70
37232;DHT22;23125;48.156;15.954;2023-03-26T14:25:37;20.40;29.30
37232;DHT22;23125;48.156;15.954;2023-03-26T14:36:15;20.50;29.60
37232;DHT22;23125;48.156;15.954;2023-03-26T14:41:49;20.50;29.80
37232;DHT22;23125;48.156;15.954;2023-03-26T14:47:13;20.50;29.80
37232;DHT22;23125;48.156;15.954;2023-03-26T15:49:05;19.20;34.40
37232;DHT22;23125;48.156;15.954;2023-03-26T15:51:41;19.20;34.50
37232;DHT22;23125;48.156;15.954;2023-03-26T15:54:28;19.20;34.60
37232;DHT22;23125;48.156;15.954;2023-03-26T15:57:00;19.10;34.70
37232;DHT22;23125;48.156;15.954;2023-03-26T16:06:01;18.80;34.90
37232;DHT22;23125;48.156;15.954;2023-03-26T16:11:48;18.50;35.50
37232;DHT22;23125;48.156;15.954;2023-03-26T16:14:18;18.40;35.90
37232;DHT22;23125;48.156;15.954;2023-03-26T16:16:56;18.30;36.20
37232;DHT22;23125;48.156;15.954;2023-03-26T16:20:12;18.20;36.50
37232;DHT22;23125;48.156;15.954;2023-03-26T16:27:43;17.90;36.80
37232;DHT22;23125;48.156;15.954;2023-03-26T16:30:15;17.90;36.90
37232;DHT22;23125;48.156;15.954;2023-03-26T16:32:56;17.80;37.20
37232;DHT22;23125;48.156;15.954;2023-03-26T16:35:58;17.70;37.30
37232;DHT22;23125;48.156;15.954;2023-03-26T16:38:27;17.60;37.40
37232;DHT22;23125;48.156;15.954;2023-03-26T16:41:27;17.50;37.50
37232;DHT22;23125;48.156;15.954;2023-03-26T16:44:05;17.40;37.70
37232;DHT22;23125;48.156;15.954;2023-03-26T16:46:42;17.40;38.00
37232;DHT22;23125;48.156;15.954;2023-03-26T16:52:01;17.20;38.30
37232;DHT22;23125;48.156;15.954;2023-03-26T16:54:42;17.20;38.50
37232;DHT22;23125;48.156;15.954;2023-03-26T17:05:15;16.90;39.10
37232;DHT22;23125;48.156;15.954;2023-03-26T17:07:51;16.80;39.10
37232;DHT22;23125;48.156;15.954;2023-03-26T17:10:53;16.70;39.30
37232;DHT22;23125;48.156;15.954;2023-03-26T17:13:43;16.70;39.60
37232;DHT22;23125;48.156;15.954;2023-03-26T17:16:23;16.60;39.80
37232;DHT22;23125;48.156;15.954;2023-03-26T17:21:54;16.60;40.00
37232;DHT22;23125;48.156;15.954;2023-03-26T17:27:43;16.50;40.30
37232;DHT22;23125;48.156;15.954;2023-03-26T17:30:01;16.50;40.30
37232;DHT22;23125;48.156;15.954;2023-03-26T17:33:09;16.40;40.60
37232;DHT22;23125;48.156;15.954;2023-03-26T17:40:44;16.40;40.90
37232;DHT22;23125;48.156;15.954;2023-03-26T17:43:31;16.30;41.00
37232;DHT22;23125;48.156;15.954;2023-03-26T17:45:59;16.30;41.10
37232;DHT22;23125;48.156;15.954;2023-03-26T17:48:29;16.30;41.10
37232;DHT22;23125;48.156;15.954;2023-03-26T17:51:15;16.30;41.30
37232;DHT22;23125;48.156;15.954;2023-03-26T17:53:43;16.30;41.50
37232;DHT22;23125;48.156;15.954;2023-03-26T17:56:15;16.30;41.50
37232;DHT22;23125;48.156;15.954;2023-03-26T17:58:46;16.20;41.60
37232;DHT22;23125;48.156;15.954;2023-03-26T18:01:28;16.20;41.70
37232;DHT22;23125;48.156;15.954;2023-03-26T18:03:58;16.20;42.40
37232;DHT22;23125;48.156;15.954;2023-03-26T18:06:39;16.20;41.90
37232;DHT22;23125;48.156;15.954;2023-03-26T18:12:21;16.10;42.20
37232;DHT22;23125;48.156;15.954;2023-03-26T18:17:31;16.00;42.50
37232;DHT22;23125;48.156;15.954;2023-03-26T18:20:05;16.00;42.60
37232;DHT22;23125;48.156;15.954;2023-03-26T18:22:32;15.90;42.60
37232;DHT22;23125;48.156;15.954;2023-03-26T18:25:00;15.90;42.70
37232;DHT22;23125;48.156;15.954;2023-03-26T18:27:36;15.90;42.90
37232;DHT22;23125;48.156;15.954;2023-03-26T18:32:53;15.90;43.30
37232;DHT22;23125;48.156;15.954;2023-03-26T18:35:24;15.90;43.40
37232;DHT22;23125;48.156;15.954;2023-03-26T18:37:55;15.80;43.40
37232;DHT22;23125;48.156;15.954;2023-03-26T18:40:32;15.80;43.50
37232;DHT22;23125;48.156;15.954;2023-03-26T18:42:58;15.90;43.70
37232;DHT22;23125;48.156;15.954;2023-03-26T18:45:36;15.80;43.60
37232;DHT22;23125;48.156;15.954;2023-03-26T18:48:08;15.80;43.70
37232;DHT22;23125;48.156;15.954;2023-03-26T18:50:39;15.80;43.80
37232;DHT22;23125;48.156;15.954;2023-03-26T18:53:13;15.70;43.70
37232;DHT22;23125;48.156;15.954;2023-03-26T18:55:40;15.70;43.70
37232;DHT22;23125;48.156;15.954;2023-03-26T18:58:33;15.60;43.70
37232;DHT22;23125;48.156;15.954;2023-03-26T19:01:05;15.60;43.90
37232;DHT22;23125;48.156;15.954;2023-03-26T19:03:34;15.60;44.10
37232;DHT22;23125;48.156;15.954;2023-03-26T19:06:02;15.60;44.20
37232;DHT22;23125;48.156;15.954;2023-03-26T19:08:33;15.50;44.20
37232;DHT22;23125;48.156;15.954;2023-03-26T19:10:59;15.50;44.40
37232;DHT22;23125;48.156;15.954;2023-03-26T19:13:31;15.50;44.50
37232;DHT22;23125;48.156;15.954;2023-03-26T19:15:58;15.40;44.70
37232;DHT22;23125;48.156;15.954;2023-03-26T19:18:27;15.40;44.80
37232;DHT22;23125;48.156;15.954;2023-03-26T19:20:58;15.40;44.80
37232;DHT22;23125;48.156;15.954;2023-03-26T19:23:31;15.40;44.90
37232;DHT22;23125;48.156;15.954;2023-03-26T19:26:04;15.30;44.80
37232;DHT22;23125;48.156;15.954;2023-03-26T19:28:52;15.30;45.00
37232;DHT22;23125;48.156;15.954;2023-03-26T19:39:39;15.10;45.30
37232;DHT22;23125;48.156;15.954;2023-03-26T19:42:13;15.10;45.40
37232;DHT22;23125;48.156;15.954;2023-03-26T19:44:41;15.10;45.50
37232;DHT22;23125;48.156;15.954;2023-03-26T19:47:19;15.00;45.60
37232;DHT22;23125;48.156;15.954;2023-03-26T19:49:58;15.00;45.80
37232;DHT22;23125;48.156;15.954;2023-03-26T19:52:36;14.90;45.90
37232;DHT22;23125;48.156;15.954;2023-03-26T19:57:35;14.90;46.10
37232;DHT22;23125;48.156;15.954;2023-03-26T20:00:06;14.80;46.00
37232;DHT22;23125;48.156;15.954;2023-03-26T20:02:39;14.80;46.10
37232;DHT22;23125;48.156;15.954;2023-03-26T20:05:18;14.80;46.20
37232;DHT22;23125;48.156;15.954;2023-03-26T20:07:51;14.80;46.40
37232;DHT22;23125;48.156;15.954;2023-03-26T20:10:17;14.70;46.40
37232;DHT22;23125;48.156;15.954;2023-03-26T20:12:43;14.70;46.60
37232;DHT22;23125;48.156;15.954;2023-03-26T20:15:30;14.70;46.60
37232;DHT22;23125;48.156;15.954;2023-03-26T20:17:57;14.60;46.60
37232;DHT22;23125;48.156;15.954;2023-03-26T20:20:25;14.60;46.70
37232;DHT22;23125;48.156;15.954;2023-03-26T20:22:53;14.60;46.90
37232;DHT22;23125;48.156;15.954;2023-03-26T20:25:30;14.60;47.00
37232;DHT22;23125;48.156;15.954;2023-03-26T20:27:57;14.50;47.00
37232;DHT22;23125;48.156;15.954;2023-03-26T20:30:24;14.40;47.20
37232;DHT22;23125;48.156;15.954;2023-03-26T20:32:51;14.40;47.30
37232;DHT22;23125;48.156;15.954;2023-03-26T20:35:23;14.40;47.40
37232;DHT22;23125;48.156;15.954;2023-03-26T20:37:50;14.40;47.60
37232;DHT22;23125;48.156;15.954;2023-03-26T20:40:16;14.40;47.60
37232;DHT22;23125;48.156;15.954;2023-03-26T20:42:43;14.40;47.60
37232;DHT22;23125;48.156;15.954;2023-03-26T20:45:20;14.30;47.70
37232;DHT22;23125;48.156;15.954;2023-03-26T20:47:48;14.40;47.90
37232;DHT22;23125;48.156;15.954;2023-03-26T20:50:16;14.30;47.80
37232;DHT22;23125;48.156;15.954;2023-03-26T20:52:43;14.30;47.90
37232;DHT22;23125;48.156;15.954;2023-03-26T20:55:13;14.30;47.90
37232;DHT22;23125;48.156;15.954;2023-03-26T20:57:40;14.30;48.00
37232;DHT22;23125;48.156;15.954;2023-03-26T21:00:09;14.30;48.10
37232;DHT22;23125;48.156;15.954;2023-03-26T21:02:52;14.20;48.20
37232;DHT22;23125;48.156;15.954;2023-03-26T21:05:24;14.20;48.30
37232;DHT22;23125;48.156;15.954;2023-03-26T21:07:51;14.20;48.30
37232;DHT22;23125;48.156;15.954;2023-03-26T21:10:18;14.10;48.20
37232;DHT22;23125;48.156;15.954;2023-03-26T21:13:35;14.10;48.40
37232;DHT22;23125;48.156;15.954;2023-03-26T21:15:34;14.10;48.50
37232;DHT22;23125;48.156;15.954;2023-03-26T21:18:00;14.10;48.70
37232;DHT22;23125;48.156;15.954;2023-03-26T21:20:27;14.10;48.70